createdAt,value
2024-04-07T00:00:07.139Z,0.00
2024-04-07T00:01:07.119Z,0.00
2024-04-07T00:02:07.082Z,0.00
2024-04-07T00:03:07.084Z,0.00
2024-04-07T00:04:07.075Z,0.00
2024-04-07T00:05:07.081Z,0.00
2024-04-07T00:06:07.030Z,0.00
2024-04-07T00:07:07.025Z,0.00
2024-04-07T00:08:07.012Z,0.00
2024-04-07T00:09:07.027Z,0.00
2024-04-07T00:10:06.994Z,0.00
2024-04-07T00:11:06.985Z,0.00
2024-04-07T00:12:07.143Z,0.00
2024-04-07T00:13:06.947Z,0.00
2024-04-07T00:14:07.054Z,0.00
2024-04-07T00:15:07.054Z,0.00
2024-04-07T00:16:06.939Z,0.00
2024-04-07T00:17:06.883Z,0.00
2024-04-07T00:18:06.996Z,0.00
2024-04-07T00:19:06.947Z,0.00
2024-04-07T00:20:06.913Z,0.00
2024-04-07T00:21:06.830Z,0.00
2024-04-07T00:22:06.825Z,0.00
2024-04-07T00:23:07.005Z,0.00
2024-04-07T00:24:06.925Z,0.00
2024-04-07T00:25:06.876Z,0.00
2024-04-07T00:26:06.792Z,0.00
2024-04-07T00:27:06.816Z,0.00
2024-04-07T00:28:06.882Z,0.00
2024-04-07T00:29:06.740Z,0.00
2024-04-07T00:30:06.754Z,0.00
2024-04-07T00:31:06.708Z,0.00
2024-04-07T00:32:06.679Z,0.00
2024-04-07T00:33:06.681Z,0.00
2024-04-07T00:34:06.761Z,0.00
2024-04-07T00:35:06.689Z,0.00
2024-04-07T00:36:06.760Z,0.00
2024-04-07T00:37:06.656Z,0.00
2024-04-07T00:38:06.675Z,0.00
2024-04-07T00:39:06.638Z,0.00
2024-04-07T00:40:06.701Z,0.00
2024-04-07T00:41:06.565Z,0.00
2024-04-07T00:42:06.565Z,0.00
2024-04-07T00:43:06.535Z,0.00
2024-04-07T00:44:06.532Z,0.00
2024-04-07T00:45:06.542Z,0.00
2024-04-07T00:46:06.504Z,0.00
2024-04-07T00:47:06.494Z,0.00
2024-04-07T00:48:06.464Z,0.00
2024-04-07T00:49:06.458Z,0.00
2024-04-07T00:50:06.435Z,0.00
2024-04-07T00:51:06.443Z,0.00
2024-04-07T00:52:06.415Z,0.00
2024-04-07T00:53:06.407Z,0.00
2024-04-07T00:54:06.383Z,0.00
2024-04-07T00:55:06.416Z,0.00
2024-04-07T00:56:06.596Z,0.00
2024-04-07T00:57:06.355Z,0.00
2024-04-07T00:58:09.163Z,0.00
2024-04-07T00:59:07.343Z,0.00
2024-04-07T01:00:06.297Z,0.00
2024-04-07T01:01:06.326Z,0.00
2024-04-07T01:02:06.277Z,0.00
2024-04-07T01:03:06.261Z,0.00
2024-04-07T01:04:06.260Z,0.00
2024-04-07T01:05:06.259Z,0.00
2024-04-07T01:06:06.238Z,0.00
2024-04-07T01:07:06.230Z,0.00
2024-04-07T01:08:06.201Z,0.00
2024-04-07T01:09:06.180Z,0.00
2024-04-07T01:10:06.177Z,0.00
2024-04-07T01:11:06.178Z,0.00
2024-04-07T01:12:07.606Z,0.00
2024-04-07T01:13:06.131Z,0.00
2024-04-07T01:14:06.122Z,0.00
2024-04-07T01:15:06.123Z,0.00
2024-04-07T01:16:06.086Z,0.00
2024-04-07T01:17:06.096Z,0.00
2024-04-07T01:18:06.049Z,0.00
2024-04-07T01:19:06.083Z,0.00
2024-04-07T01:20:06.030Z,0.00
2024-04-07T01:21:06.046Z,0.00
2024-04-07T01:22:06.014Z,0.00
2024-04-07T01:23:05.999Z,0.00
2024-04-07T01:24:05.990Z,0.00
2024-04-07T01:25:05.967Z,0.00
2024-04-07T01:26:05.952Z,0.00
2024-04-07T01:27:05.972Z,0.00
2024-04-07T01:28:05.942Z,0.00
2024-04-07T01:29:05.949Z,0.00
2024-04-07T01:30:05.889Z,0.00
2024-04-07T01:31:05.891Z,0.00
2024-04-07T01:32:05.861Z,0.00
2024-04-07T01:33:05.901Z,0.00
2024-04-07T01:34:05.867Z,0.00
2024-04-07T01:35:05.835Z,0.00
2024-04-07T01:36:05.849Z,0.00
2024-04-07T01:37:05.808Z,0.00
2024-04-07T01:38:05.821Z,0.00
2024-04-07T01:39:05.763Z,0.00
2024-04-07T01:40:05.756Z,0.00
2024-04-07T01:41:05.757Z,0.00
2024-04-07T01:42:05.751Z,0.00
2024-04-07T01:43:05.741Z,0.00
2024-04-07T01:44:05.737Z,0.00
2024-04-07T01:45:05.713Z,0.00
2024-04-07T01:46:05.684Z,0.00
2024-04-07T01:47:05.680Z,0.00
2024-04-07T01:48:05.646Z,0.00
2024-04-07T01:49:05.647Z,0.00
2024-04-07T01:50:05.656Z,0.00
2024-04-07T01:51:05.631Z,0.00
2024-04-07T01:52:05.617Z,0.00
2024-04-07T01:53:05.589Z,0.00
2024-04-07T01:54:05.586Z,0.00
2024-04-07T01:55:05.548Z,0.00
2024-04-07T01:56:05.551Z,0.00
2024-04-07T01:57:05.531Z,0.00
2024-04-07T01:58:05.542Z,0.00
2024-04-07T01:59:05.519Z,0.00
2024-04-07T02:00:05.480Z,0.00
2024-04-07T02:01:05.493Z,0.00
2024-04-07T02:02:05.450Z,0.00
2024-04-07T02:03:05.478Z,0.00
2024-04-07T02:04:05.429Z,0.00
2024-04-07T02:05:05.445Z,0.00
2024-04-07T02:06:05.423Z,0.00
2024-04-07T02:07:05.384Z,0.00
2024-04-07T02:08:05.375Z,0.00
2024-04-07T02:09:05.366Z,0.00
2024-04-07T02:10:05.353Z,0.00
2024-04-07T02:11:05.359Z,0.00
2024-04-07T02:12:05.317Z,0.00
2024-04-07T02:13:05.312Z,0.00
2024-04-07T02:14:05.290Z,0.00
2024-04-07T02:15:05.307Z,0.00
2024-04-07T02:16:05.289Z,0.00
2024-04-07T02:17:05.261Z,0.00
2024-04-07T02:18:05.268Z,0.00
2024-04-07T02:19:05.259Z,0.00
2024-04-07T02:20:05.226Z,0.00
2024-04-07T02:21:05.207Z,0.00
2024-04-07T02:22:05.184Z,0.00
2024-04-07T02:23:05.187Z,0.00
2024-04-07T02:24:05.191Z,0.00
2024-04-07T02:25:05.151Z,0.00
2024-04-07T02:26:05.118Z,0.00
2024-04-07T02:27:05.134Z,0.00
2024-04-07T02:28:05.146Z,0.00
2024-04-07T02:29:05.106Z,0.00
2024-04-07T02:30:05.088Z,0.00
2024-04-07T02:31:05.070Z,0.00
2024-04-07T02:32:05.045Z,0.00
2024-04-07T02:33:05.058Z,0.00
2024-04-07T02:34:05.053Z,0.00
2024-04-07T02:35:05.044Z,0.00
2024-04-07T02:36:04.997Z,0.00
2024-04-07T02:37:04.985Z,0.00
2024-04-07T02:38:04.982Z,0.00
2024-04-07T02:39:04.978Z,0.00
2024-04-07T02:40:04.938Z,0.00
2024-04-07T02:41:04.933Z,0.00
2024-04-07T02:42:04.907Z,0.00
2024-04-07T02:43:04.913Z,0.00
2024-04-07T02:44:04.877Z,0.00
2024-04-07T02:45:04.890Z,0.00
2024-04-07T02:46:04.865Z,0.00
2024-04-07T02:47:04.880Z,0.00
2024-04-07T02:48:04.855Z,0.00
2024-04-07T02:49:04.826Z,0.00
2024-04-07T02:50:04.793Z,0.00
2024-04-07T02:51:04.787Z,0.00
2024-04-07T02:52:04.786Z,0.00
2024-04-07T02:53:04.781Z,0.00
2024-04-07T02:54:04.769Z,0.00
2024-04-07T02:55:04.770Z,0.00
2024-04-07T02:56:04.718Z,0.00
2024-04-07T02:57:04.729Z,0.00
2024-04-07T02:58:04.695Z,0.00
2024-04-07T02:59:04.692Z,0.00
2024-04-07T03:00:04.738Z,0.00
2024-04-07T03:01:04.689Z,0.00
2024-04-07T03:02:04.700Z,0.00
2024-04-07T03:03:04.629Z,0.00
2024-04-07T03:04:04.621Z,0.00
2024-04-07T03:05:06.596Z,0.00
2024-04-07T03:06:04.593Z,0.00
2024-04-07T03:07:04.577Z,0.00
2024-04-07T03:08:04.563Z,0.00
2024-04-07T03:09:04.561Z,0.00
2024-04-07T03:10:04.548Z,0.00
2024-04-07T03:11:04.538Z,0.00
2024-04-07T03:12:04.500Z,0.00
2024-04-07T03:13:04.507Z,0.00
2024-04-07T03:14:04.498Z,0.00
2024-04-07T03:15:04.512Z,0.00
2024-04-07T03:16:04.454Z,0.00
2024-04-07T03:17:05.932Z,0.00
2024-04-07T03:18:04.419Z,0.00
2024-04-07T03:19:04.457Z,0.00
2024-04-07T03:20:04.424Z,0.00
2024-04-07T03:21:04.382Z,0.00
2024-04-07T03:22:04.369Z,0.00
2024-04-07T03:23:04.361Z,0.00
2024-04-07T03:24:04.348Z,0.00
2024-04-07T03:25:04.347Z,0.00
2024-04-07T03:26:04.314Z,0.00
2024-04-07T03:27:04.292Z,0.00
2024-04-07T03:28:04.292Z,0.00
2024-04-07T03:29:04.280Z,0.00
2024-04-07T03:30:04.278Z,0.00
2024-04-07T03:31:04.248Z,0.00
2024-04-07T03:32:04.235Z,0.00
2024-04-07T03:33:04.206Z,0.00
2024-04-07T03:34:04.231Z,0.00
2024-04-07T03:35:04.190Z,0.00
2024-04-07T03:36:04.179Z,0.00
2024-04-07T03:37:04.165Z,0.00
2024-04-07T03:38:04.171Z,0.00
2024-04-07T03:39:04.149Z,0.00
2024-04-07T03:40:04.118Z,0.00
2024-04-07T03:41:04.100Z,0.00
2024-04-07T03:42:04.112Z,0.00
2024-04-07T03:43:04.084Z,0.00
2024-04-07T03:44:04.069Z,0.00
2024-04-07T03:45:04.079Z,0.00
2024-04-07T03:46:04.063Z,0.00
2024-04-07T03:47:04.017Z,0.00
2024-04-07T03:48:04.034Z,0.00
2024-04-07T03:49:04.002Z,0.00
2024-04-07T03:50:03.984Z,0.00
2024-04-07T03:51:03.963Z,0.00
2024-04-07T03:52:03.982Z,0.00
2024-04-07T03:53:03.963Z,0.00
2024-04-07T03:54:03.938Z,0.00
2024-04-07T03:55:03.915Z,0.00
2024-04-07T03:56:03.903Z,0.00
2024-04-07T03:57:03.926Z,0.00
2024-04-07T03:58:03.891Z,0.00
2024-04-07T03:59:03.869Z,0.00
2024-04-07T04:00:03.871Z,0.00
2024-04-07T04:01:03.825Z,0.00
2024-04-07T04:02:03.832Z,0.00
2024-04-07T04:03:03.807Z,0.00
2024-04-07T04:04:03.792Z,0.00
2024-04-07T04:05:03.776Z,0.00
2024-04-07T04:06:03.788Z,0.00
2024-04-07T04:07:03.764Z,0.00
2024-04-07T04:08:03.742Z,0.00
2024-04-07T04:09:03.718Z,0.00
2024-04-07T04:10:03.708Z,0.00
2024-04-07T04:11:03.712Z,0.00
2024-04-07T04:12:03.676Z,0.00
2024-04-07T04:13:03.662Z,0.00
2024-04-07T04:14:03.660Z,0.00
2024-04-07T04:15:03.650Z,0.00
2024-04-07T04:16:03.649Z,0.00
2024-04-07T04:17:03.607Z,0.00
2024-04-07T04:18:03.603Z,0.00
2024-04-07T04:19:03.578Z,0.00
2024-04-07T04:20:03.597Z,0.00
2024-04-07T04:21:03.594Z,0.00
2024-04-07T04:22:03.555Z,0.00
2024-04-07T04:23:03.544Z,0.00
2024-04-07T04:24:03.517Z,0.00
2024-04-07T04:25:03.514Z,0.00
2024-04-07T04:26:03.491Z,0.00
2024-04-07T04:27:03.473Z,0.00
2024-04-07T04:28:03.463Z,0.00
2024-04-07T04:29:03.445Z,0.00
2024-04-07T04:30:03.481Z,0.00
2024-04-07T04:31:03.422Z,0.00
2024-04-07T04:32:03.404Z,0.00
2024-04-07T04:33:03.400Z,0.00
2024-04-07T04:34:03.407Z,0.00
2024-04-07T04:35:03.384Z,0.00
2024-04-07T04:36:03.352Z,0.00
2024-04-07T04:37:03.341Z,0.00
2024-04-07T04:38:03.340Z,0.00
2024-04-07T04:39:03.337Z,4.00
2024-04-07T04:40:03.303Z,4.00
2024-04-07T04:41:03.282Z,0.00
2024-04-07T04:42:03.273Z,4.00
2024-04-07T04:43:03.277Z,4.00
2024-04-07T04:44:03.266Z,8.00
2024-04-07T04:45:03.241Z,4.00
2024-04-07T04:46:03.234Z,4.00
2024-04-07T04:47:03.207Z,8.00
2024-04-07T04:48:03.207Z,8.00
2024-04-07T04:49:03.187Z,8.00
2024-04-07T04:50:03.173Z,8.00
2024-04-07T04:51:03.146Z,8.00
2024-04-07T04:52:03.143Z,8.00
2024-04-07T04:53:03.139Z,12.00
2024-04-07T04:54:03.108Z,8.00
2024-04-07T04:55:03.093Z,12.00
2024-04-07T04:56:03.092Z,12.00
2024-04-07T04:57:03.090Z,12.00
2024-04-07T04:58:03.079Z,12.00
2024-04-07T04:59:03.043Z,16.00
2024-04-07T05:00:03.032Z,16.00
2024-04-07T05:01:03.016Z,16.00
2024-04-07T05:02:03.062Z,20.00
2024-04-07T05:03:02.994Z,20.00
2024-04-07T05:04:02.979Z,24.00
2024-04-07T05:05:02.991Z,28.00
2024-04-07T05:06:02.953Z,36.00
2024-04-07T05:07:02.958Z,40.00
2024-04-07T05:08:02.930Z,40.00
2024-04-07T05:09:02.901Z,36.00
2024-04-07T05:10:02.922Z,36.00
2024-04-07T05:11:02.887Z,36.00
2024-04-07T05:12:02.889Z,40.00
2024-04-07T05:13:02.862Z,44.00
2024-04-07T05:14:02.855Z,48.00
2024-04-07T05:15:02.836Z,56.00
2024-04-07T05:16:02.843Z,60.00
2024-04-07T05:17:02.812Z,68.00
2024-04-07T05:18:02.807Z,72.00
2024-04-07T05:19:02.782Z,76.00
2024-04-07T05:20:02.778Z,80.00
2024-04-07T05:21:02.764Z,80.00
2024-04-07T05:22:02.735Z,84.00
2024-04-07T05:23:02.729Z,80.00
2024-04-07T05:24:02.744Z,72.00
2024-04-07T05:25:02.713Z,68.00
2024-04-07T05:26:02.694Z,68.00
2024-04-07T05:27:02.678Z,72.00
2024-04-07T05:28:02.662Z,80.00
2024-04-07T05:29:02.646Z,96.00
2024-04-07T05:30:02.643Z,112.00
2024-04-07T05:31:02.622Z,120.00
2024-04-07T05:32:02.628Z,140.00
2024-04-07T05:33:02.598Z,156.00
2024-04-07T05:34:02.584Z,156.00
2024-04-07T05:35:02.589Z,156.00
2024-04-07T05:36:02.575Z,156.00
2024-04-07T05:37:02.532Z,152.00
2024-04-07T05:38:02.549Z,164.00
2024-04-07T05:39:02.524Z,176.00
2024-04-07T05:40:03.966Z,192.00
2024-04-07T05:41:02.484Z,204.00
2024-04-07T05:42:02.485Z,208.00
2024-04-07T05:43:02.453Z,212.00
2024-04-07T05:44:02.456Z,220.00
2024-04-07T05:45:02.443Z,256.00
2024-04-07T05:46:02.418Z,308.00
2024-04-07T05:47:02.401Z,360.00
2024-04-07T05:48:02.402Z,392.00
2024-04-07T05:49:02.401Z,400.00
2024-04-07T05:50:02.370Z,428.00
2024-04-07T05:51:02.356Z,476.00
2024-04-07T05:52:02.336Z,504.00
2024-04-07T05:53:02.345Z,524.00
2024-04-07T05:54:02.337Z,560.00
2024-04-07T05:55:02.318Z,604.00
2024-04-07T05:56:02.303Z,652.00
2024-04-07T05:57:02.275Z,688.00
2024-04-07T05:58:02.266Z,708.00
2024-04-07T05:59:02.241Z,744.00
2024-04-07T06:00:02.246Z,776.00
2024-04-07T06:01:02.212Z,800.00
2024-04-07T06:02:02.214Z,800.00
2024-04-07T06:03:02.198Z,796.00
2024-04-07T06:04:02.187Z,768.00
2024-04-07T06:05:02.188Z,816.00
2024-04-07T06:06:02.165Z,844.00
2024-04-07T06:07:02.161Z,872.00
2024-04-07T06:08:02.177Z,916.00
2024-04-07T06:09:02.141Z,928.00
2024-04-07T06:10:02.101Z,924.00
2024-04-07T06:11:02.076Z,936.00
2024-04-07T06:12:02.073Z,952.00
2024-04-07T06:13:02.060Z,960.00
2024-04-07T06:14:02.039Z,960.00
2024-04-07T06:15:02.022Z,940.00
2024-04-07T06:16:02.029Z,912.00
2024-04-07T06:17:02.037Z,872.00
2024-04-07T06:18:01.988Z,712.00
2024-04-07T06:19:01.978Z,576.00
2024-04-07T06:20:01.995Z,544.00
2024-04-07T06:21:01.981Z,716.00
2024-04-07T06:22:01.950Z,876.00
2024-04-07T06:23:01.929Z,824.00
2024-04-07T06:24:01.918Z,860.00
2024-04-07T06:25:01.900Z,888.00
2024-04-07T06:26:01.909Z,832.00
2024-04-07T06:27:01.855Z,820.00
2024-04-07T06:28:01.874Z,864.00
2024-04-07T06:29:01.838Z,892.00
2024-04-07T06:30:01.818Z,892.00
2024-04-07T06:31:01.823Z,908.00
2024-04-07T06:32:01.813Z,948.00
2024-04-07T06:33:01.795Z,992.00
2024-04-07T06:34:01.775Z,1088.00
2024-04-07T06:35:01.779Z,1064.00
2024-04-07T06:36:01.874Z,1192.00
2024-04-07T06:37:01.735Z,1352.00
2024-04-07T06:38:01.727Z,1336.00
2024-04-07T06:39:01.716Z,1252.00
2024-04-07T06:40:01.780Z,1384.00
2024-04-07T06:41:01.686Z,1448.00
2024-04-07T06:42:01.687Z,1384.00
2024-04-07T06:43:01.656Z,1460.00
2024-04-07T06:44:01.645Z,1624.00
2024-04-07T06:45:01.650Z,1780.00
2024-04-07T06:46:01.615Z,1688.00
2024-04-07T06:47:01.618Z,1652.00
2024-04-07T06:48:01.583Z,1632.00
2024-04-07T06:49:01.587Z,1660.00
2024-04-07T06:50:01.589Z,1708.00
2024-04-07T06:51:01.550Z,1796.00
2024-04-07T06:52:01.536Z,1932.00
2024-04-07T06:53:01.506Z,2004.00
2024-04-07T06:54:01.520Z,2072.00
2024-04-07T06:55:01.489Z,1984.00
2024-04-07T06:56:01.509Z,1776.00
2024-04-07T06:57:01.461Z,1668.00
2024-04-07T06:58:01.474Z,1552.00
2024-04-07T06:59:01.443Z,1504.00
2024-04-07T07:00:01.445Z,1484.00
2024-04-07T07:01:01.409Z,1464.00
2024-04-07T07:02:01.420Z,1748.00
2024-04-07T07:03:01.451Z,1868.00
2024-04-07T07:04:01.401Z,1828.00
2024-04-07T07:05:01.390Z,1776.00
2024-04-07T07:06:01.342Z,1688.00
2024-04-07T07:07:01.334Z,1704.00
2024-04-07T07:08:01.435Z,1628.00
2024-04-07T07:09:01.341Z,1424.00
2024-04-07T07:10:01.348Z,1380.00
2024-04-07T07:11:01.345Z,1464.00
2024-04-07T07:12:01.292Z,1704.00
2024-04-07T07:13:01.290Z,1756.00
2024-04-07T07:14:01.259Z,1636.00
2024-04-07T07:15:01.219Z,1592.00
2024-04-07T07:16:01.217Z,1476.00
2024-04-07T07:17:01.237Z,1496.00
2024-04-07T07:18:01.174Z,1612.00
2024-04-07T07:19:01.177Z,1860.00
2024-04-07T07:20:01.221Z,1920.00
2024-04-07T07:21:01.140Z,1796.00
2024-04-07T07:22:01.144Z,1544.00
2024-04-07T07:23:01.106Z,1300.00
2024-04-07T07:24:01.104Z,1236.00
2024-04-07T07:25:01.129Z,1280.00
2024-04-07T07:26:01.135Z,1328.00
2024-04-07T07:27:01.078Z,1312.00
2024-04-07T07:28:01.051Z,1208.00
2024-04-07T07:29:01.063Z,1100.00
2024-04-07T07:30:01.074Z,1040.00
2024-04-07T07:31:01.027Z,996.00
2024-04-07T07:32:01.009Z,972.00
2024-04-07T07:33:01.034Z,976.00
2024-04-07T07:34:00.987Z,1020.00
2024-04-07T07:35:00.997Z,1068.00
2024-04-07T07:36:00.987Z,1116.00
2024-04-07T07:37:00.917Z,1204.00
2024-04-07T07:38:00.942Z,1184.00
2024-04-07T07:39:00.909Z,1216.00
2024-04-07T07:40:00.908Z,1260.00
2024-04-07T07:41:00.929Z,1216.00
2024-04-07T07:42:00.839Z,1072.00
2024-04-07T07:43:00.853Z,984.00
2024-04-07T07:44:03.716Z,984.00
2024-04-07T07:45:00.855Z,1100.00
2024-04-07T07:46:00.776Z,1192.00
2024-04-07T07:47:00.798Z,1160.00
2024-04-07T07:48:00.787Z,1168.00
2024-04-07T07:49:00.771Z,1356.00
2024-04-07T07:50:00.880Z,1564.00
2024-04-07T07:51:00.727Z,1688.00
2024-04-07T07:52:00.698Z,1768.00
2024-04-07T07:53:00.762Z,1840.00
2024-04-07T07:54:00.692Z,2064.00
2024-04-07T07:55:00.711Z,2100.00
2024-04-07T07:56:00.701Z,1916.00
2024-04-07T07:57:00.633Z,1832.00
2024-04-07T07:58:00.642Z,2064.00
2024-04-07T07:59:00.678Z,2248.00
2024-04-07T08:00:14.224Z,2196.00
2024-04-07T08:01:01.609Z,1996.00
2024-04-07T08:02:00.635Z,1876.00
2024-04-07T08:03:00.590Z,1824.00
2024-04-07T08:04:00.567Z,1720.00
2024-04-07T08:05:00.637Z,1780.00
2024-04-07T08:06:00.544Z,1924.00
2024-04-07T08:07:00.510Z,1932.00
2024-04-07T08:08:00.613Z,2272.00
2024-04-07T08:09:00.569Z,2576.00
2024-04-07T08:10:00.476Z,2804.00
2024-04-07T08:11:00.563Z,3008.00
2024-04-07T08:12:00.473Z,3096.00
2024-04-07T08:13:00.466Z,2972.00
2024-04-07T08:14:00.506Z,2816.00
2024-04-07T08:15:00.410Z,2652.00
2024-04-07T08:16:00.400Z,2616.00
2024-04-07T08:17:00.470Z,2616.00
2024-04-07T08:18:00.387Z,2620.00
2024-04-07T08:19:00.401Z,2704.00
2024-04-07T08:20:00.446Z,3044.00
2024-04-07T08:21:00.325Z,3476.00
2024-04-07T08:22:00.327Z,3584.00
2024-04-07T08:23:00.397Z,3672.00
2024-04-07T08:24:00.306Z,3728.00
2024-04-07T08:25:00.275Z,3716.00
2024-04-07T08:26:00.319Z,3724.00
2024-04-07T08:27:00.249Z,3736.00
2024-04-07T08:28:00.220Z,3760.00
2024-04-07T08:29:00.282Z,3776.00
2024-04-07T08:30:00.336Z,3792.00
2024-04-07T08:31:00.196Z,3816.00
2024-04-07T08:32:00.242Z,3668.00
2024-04-07T08:33:00.187Z,3616.00
2024-04-07T08:34:00.143Z,3720.00
2024-04-07T08:35:00.191Z,3868.00
2024-04-07T08:36:00.135Z,3992.00
2024-04-07T08:37:00.088Z,3912.00
2024-04-07T08:38:00.151Z,3884.00
2024-04-07T08:39:00.067Z,3888.00
2024-04-07T08:40:00.057Z,3932.00
2024-04-07T08:41:00.153Z,3856.00
2024-04-07T08:42:00.037Z,3820.00
2024-04-07T08:43:00.050Z,3704.00
2024-04-07T08:44:00.036Z,3640.00
2024-04-07T08:45:00.017Z,3548.00
2024-04-07T08:45:59.999Z,3564.00
2024-04-07T08:47:00.037Z,3564.00
2024-04-07T08:47:59.974Z,3580.00
2024-04-07T08:48:59.932Z,3620.00
2024-04-07T08:49:59.989Z,3632.00
2024-04-07T08:50:59.927Z,3608.00
2024-04-07T08:52:08.036Z,3564.00
2024-04-07T08:53:00.119Z,3548.00
2024-04-07T08:53:59.937Z,3616.00
2024-04-07T08:54:59.950Z,3728.00
2024-04-07T08:55:59.979Z,3808.00
2024-04-07T08:56:59.948Z,3832.00
2024-04-07T08:57:59.856Z,3880.00
2024-04-07T08:58:59.871Z,3948.00
2024-04-07T08:59:59.809Z,4028.00
2024-04-07T09:00:59.771Z,4288.00
2024-04-07T09:01:59.778Z,4388.00
2024-04-07T09:02:59.745Z,4288.00
2024-04-07T09:03:59.748Z,4184.00
2024-04-07T09:04:59.764Z,4144.00
2024-04-07T09:05:59.773Z,4176.00
2024-04-07T09:06:59.705Z,4488.00
2024-04-07T09:07:59.687Z,4756.00
2024-04-07T09:08:59.683Z,4952.00
2024-04-07T09:09:59.645Z,4932.00
2024-04-07T09:10:59.657Z,5100.00
2024-04-07T09:11:59.628Z,5020.00
2024-04-07T09:12:59.649Z,4816.00
2024-04-07T09:13:59.665Z,5088.00
2024-04-07T09:14:59.609Z,5428.00
2024-04-07T09:15:59.578Z,5744.00
2024-04-07T09:16:59.558Z,5660.00
2024-04-07T09:17:59.600Z,5248.00
2024-04-07T09:19:00.421Z,5420.00
2024-04-07T09:19:59.568Z,5576.00
2024-04-07T09:20:59.523Z,5572.00
2024-04-07T09:21:59.499Z,5268.00
2024-04-07T09:22:59.542Z,5272.00
2024-04-07T09:23:59.493Z,5620.00
2024-04-07T09:24:59.474Z,5908.00
2024-04-07T09:25:59.460Z,5760.00
2024-04-07T09:26:59.484Z,5588.00
2024-04-07T09:27:59.495Z,4932.00
2024-04-07T09:28:59.441Z,4564.00
2024-04-07T09:29:59.492Z,4168.00
2024-04-07T09:30:59.394Z,4552.00
2024-04-07T09:31:59.409Z,4996.00
2024-04-07T09:32:59.354Z,5328.00
2024-04-07T09:33:59.350Z,5812.00
2024-04-07T09:34:59.384Z,5904.00
2024-04-07T09:35:59.341Z,6008.00
2024-04-07T09:36:59.333Z,6208.00
2024-04-07T09:37:59.293Z,6448.00
2024-04-07T09:38:59.321Z,6240.00
2024-04-07T09:39:59.265Z,6288.00
2024-04-07T09:40:59.295Z,6508.00
2024-04-07T09:41:59.225Z,6752.00
2024-04-07T09:42:59.230Z,7056.00
2024-04-07T09:43:59.225Z,6676.00
2024-04-07T09:44:59.200Z,6176.00
2024-04-07T09:45:59.191Z,5692.00
2024-04-07T09:46:59.226Z,5436.00
2024-04-07T09:47:59.175Z,5740.00
2024-04-07T09:48:59.140Z,5988.00
2024-04-07T09:49:59.150Z,5576.00
2024-04-07T09:50:59.135Z,5360.00
2024-04-07T09:51:59.093Z,5696.00
2024-04-07T09:52:59.086Z,5888.00
2024-04-07T09:53:59.059Z,6092.00
2024-04-07T09:54:59.083Z,6328.00
2024-04-07T09:55:59.064Z,6676.00
2024-04-07T09:56:59.041Z,6968.00
2024-04-07T09:57:59.038Z,6512.00
2024-04-07T09:58:59.032Z,6028.00
2024-04-07T09:59:59.010Z,5444.00
2024-04-07T10:00:58.990Z,5196.00
2024-04-07T10:01:59.000Z,4872.00
2024-04-07T10:02:58.937Z,4464.00
2024-04-07T10:03:58.960Z,4360.00
2024-04-07T10:04:58.996Z,4008.00
2024-04-07T10:05:58.890Z,3896.00
2024-04-07T10:06:58.888Z,4012.00
2024-04-07T10:07:58.894Z,4116.00
2024-04-07T10:08:58.904Z,4120.00
2024-04-07T10:09:58.896Z,4052.00
2024-04-07T10:11:07.894Z,4096.00
2024-04-07T10:11:59.822Z,3968.00
2024-04-07T10:12:58.827Z,3768.00
2024-04-07T10:13:58.822Z,3740.00
2024-04-07T10:14:58.794Z,3860.00
2024-04-07T10:15:58.811Z,3876.00
2024-04-07T10:16:58.816Z,3936.00
2024-04-07T10:17:58.804Z,4144.00
2024-04-07T10:18:58.748Z,4484.00
2024-04-07T10:19:58.777Z,4664.00
2024-04-07T10:20:58.705Z,4600.00
2024-04-07T10:21:58.698Z,4284.00
2024-04-07T10:22:58.730Z,4264.00
2024-04-07T10:23:58.650Z,4520.00
2024-04-07T10:24:58.729Z,4464.00
2024-04-07T10:25:58.652Z,4276.00
2024-04-07T10:26:58.682Z,4164.00
2024-04-07T10:27:58.647Z,4064.00
2024-04-07T10:28:58.628Z,4124.00
2024-04-07T10:29:58.575Z,4428.00
2024-04-07T10:30:58.595Z,4864.00
2024-04-07T10:31:58.603Z,5448.00
2024-04-07T10:32:58.553Z,5544.00
2024-04-07T10:33:58.539Z,5712.00
2024-04-07T10:34:58.535Z,5856.00
2024-04-07T10:35:58.499Z,6176.00
2024-04-07T10:36:58.531Z,6896.00
2024-04-07T10:37:58.469Z,7560.00
2024-04-07T10:38:58.486Z,7644.00
2024-04-07T10:39:58.443Z,7176.00
2024-04-07T10:40:58.459Z,6736.00
2024-04-07T10:41:58.474Z,6768.00
2024-04-07T10:42:58.410Z,6548.00
2024-04-07T10:43:58.380Z,6868.00
2024-04-07T10:44:58.375Z,8204.00
2024-04-07T10:45:58.376Z,8332.00
2024-04-07T10:46:58.364Z,8280.00
2024-04-07T10:47:58.358Z,8572.00
2024-04-07T10:48:58.334Z,9296.00
2024-04-07T10:49:58.341Z,8572.00
2024-04-07T10:50:58.323Z,6600.00
2024-04-07T10:51:58.274Z,6040.00
2024-04-07T10:52:58.314Z,6464.00
2024-04-07T10:53:58.249Z,7276.00
2024-04-07T10:54:58.277Z,8312.00
2024-04-07T10:55:58.276Z,9400.00
2024-04-07T10:56:58.251Z,9152.00
2024-04-07T10:57:58.207Z,8712.00
2024-04-07T10:58:58.205Z,9384.00
2024-04-07T10:59:58.190Z,11368.00
2024-04-07T11:00:58.160Z,15056.00
2024-04-07T11:01:58.215Z,17152.00
2024-04-07T11:02:58.199Z,16064.00
2024-04-07T11:03:58.136Z,17088.00
2024-04-07T11:04:58.161Z,21344.00
2024-04-07T11:05:58.096Z,17344.00
2024-04-07T11:06:58.094Z,15484.00
2024-04-07T11:07:58.059Z,17056.00
2024-04-07T11:08:58.071Z,16960.00
2024-04-07T11:09:58.019Z,14552.00
2024-04-07T11:10:58.057Z,15936.00
2024-04-07T11:11:58.021Z,16832.00
2024-04-07T11:12:57.993Z,16224.00
2024-04-07T11:13:58.003Z,22176.00
2024-04-07T11:14:57.981Z,20704.00
2024-04-07T11:15:58.012Z,20416.00
2024-04-07T11:16:57.963Z,19616.00
2024-04-07T11:17:57.972Z,20000.00
2024-04-07T11:18:57.931Z,21088.00
2024-04-07T11:19:57.910Z,21888.00
2024-04-07T11:20:57.913Z,22272.00
2024-04-07T11:21:57.894Z,22976.00
2024-04-07T11:22:57.916Z,24544.00
2024-04-07T11:23:57.854Z,29504.00
2024-04-07T11:24:57.875Z,17344.00
2024-04-07T11:25:57.815Z,14728.00
2024-04-07T11:26:57.829Z,14456.00
2024-04-07T11:27:57.831Z,12492.00
2024-04-07T11:28:57.849Z,8800.00
2024-04-07T11:29:57.779Z,7820.00
2024-04-07T11:30:57.759Z,8140.00
2024-04-07T11:32:04.560Z,9296.00
2024-04-07T11:32:58.778Z,10424.00
2024-04-07T11:33:57.719Z,8884.00
2024-04-07T11:34:57.706Z,10104.00
2024-04-07T11:35:57.733Z,13700.00
2024-04-07T11:36:57.739Z,16608.00
2024-04-07T11:37:57.697Z,16992.00
2024-04-07T11:38:57.662Z,16224.00
2024-04-07T11:39:57.657Z,16032.00
2024-04-07T11:40:57.674Z,48544.00
2024-04-07T11:41:57.656Z,43776.00
2024-04-07T11:42:57.642Z,28256.00
2024-04-07T11:43:57.584Z,33664.00
2024-04-07T11:44:57.605Z,47680.00
2024-04-07T11:45:57.636Z,52640.00
2024-04-07T11:46:57.584Z,21888.00
2024-04-07T11:47:57.534Z,14604.00
2024-04-07T11:48:57.535Z,16320.00
2024-04-07T11:49:57.506Z,20160.00
2024-04-07T11:50:57.510Z,18912.00
2024-04-07T11:51:57.480Z,10840.00
2024-04-07T11:52:57.468Z,7980.00
2024-04-07T11:53:57.485Z,8224.00
2024-04-07T11:54:57.449Z,8556.00
2024-04-07T11:55:57.478Z,8732.00
2024-04-07T11:56:57.427Z,8968.00
2024-04-07T11:57:57.402Z,9892.00
2024-04-07T11:58:57.380Z,10980.00
2024-04-07T11:59:57.408Z,9444.00
2024-04-07T12:00:57.381Z,8944.00
2024-04-07T12:01:57.358Z,8028.00
2024-04-07T12:02:57.317Z,8652.00
2024-04-07T12:03:57.341Z,13708.00
2024-04-07T12:04:57.319Z,22624.00
2024-04-07T12:05:57.322Z,75520.00
2024-04-07T12:06:57.267Z,25216.00
2024-04-07T12:07:57.262Z,32832.00
2024-04-07T12:08:57.247Z,45920.00
2024-04-07T12:09:57.475Z,21632.00
2024-04-07T12:10:57.231Z,16544.00
2024-04-07T12:11:57.236Z,12932.00
2024-04-07T12:12:57.180Z,31136.00
2024-04-07T12:13:57.203Z,31808.00
2024-04-07T12:14:57.177Z,46848.00
2024-04-07T12:15:57.146Z,42336.00
2024-04-07T12:16:57.135Z,27968.00
2024-04-07T12:17:57.123Z,60032.00
2024-04-07T12:18:57.136Z,51488.00
2024-04-07T12:19:57.163Z,62720.00
2024-04-07T12:20:57.079Z,62720.00
2024-04-07T12:21:57.080Z,62368.00
2024-04-07T12:22:57.066Z,66080.00
2024-04-07T12:23:57.069Z,68000.00
2024-04-07T12:24:57.034Z,67008.00
2024-04-07T12:25:57.030Z,64864.00
2024-04-07T12:26:56.997Z,65856.00
2024-04-07T12:27:57.005Z,67360.00
2024-04-07T12:28:56.993Z,69952.00
2024-04-07T12:29:56.979Z,66816.00
2024-04-07T12:30:56.941Z,61504.00
2024-04-07T12:31:56.960Z,61376.00
2024-04-07T12:32:56.927Z,64288.00
2024-04-07T12:33:56.918Z,68416.00